Time;durP1;ratioP1;P1;durP2;ratioP2;P2;SDS_P1;SDS_P2;PMS_P1;PMS_P2;Temp;Humidity;BMP_temperature;BMP_pressure;BME280_temperature;BME280_humidity;BME280_pressure;Samples;Min_cycle;Max_cycle;Signal;HPM_P1;HPM_P2
2022/04/15 00:02:07;;;;;;;31.83;20.83;;;15.50;58.30;;;;;;5013606;28;20257;-73
2022/04/15 00:04:35;;;;;;;33.77;20.93;;;15.40;58.60;;;;;;5015484;28;20239;-73
2022/04/15 00:07:03;;;;;;;32.40;20.67;;;15.30;59.10;;;;;;5015454;28;20208;-72
2022/04/15 00:09:31;;;;;;;36.37;20.63;;;15.20;59.30;;;;;;5014976;28;20241;-73
2022/04/15 00:12:00;;;;;;;32.50;20.50;;;15.20;59.40;;;;;;5013613;28;20212;-73
2022/04/15 00:14:27;;;;;;;34.13;21.23;;;15.10;59.90;;;;;;5012597;28;20211;-73
2022/04/15 00:16:54;;;;;;;32.53;20.47;;;15.00;60.20;;;;;;5013824;28;20246;-73
2022/04/15 00:19:23;;;;;;;34.83;20.43;;;14.90;60.60;;;;;;5014309;28;20678;-73
2022/04/15 00:21:52;;;;;;;30.73;20.53;;;14.80;60.80;;;;;;5012736;28;20611;-73
2022/04/15 00:24:19;;;;;;;36.43;21.77;;;14.70;60.50;;;;;;5015019;28;20590;-74
2022/04/15 00:26:46;;;;;;;30.10;19.70;;;14.80;61.30;;;;;;5014593;28;20208;-74
2022/04/15 00:29:13;;;;;;;33.67;20.20;;;14.60;61.10;;;;;;5015532;28;20215;-73
2022/04/15 00:31:40;;;;;;;29.43;18.37;;;14.60;61.20;;;;;;5000787;28;20199;-72
2022/04/15 00:34:07;;;;;;;30.23;18.50;;;14.50;61.40;;;;;;5013353;28;20274;-72
2022/04/15 00:36:35;;;;;;;31.27;19.37;;;14.40;61.50;;;;;;5014145;28;20242;-73
2022/04/15 00:39:02;;;;;;;30.43;18.87;;;14.30;61.70;;;;;;5014687;28;20211;-73
2022/04/15 00:41:29;;;;;;;28.50;17.93;;;14.20;61.90;;;;;;5013852;28;20440;-73
2022/04/15 00:43:58;;;;;;;30.90;20.73;;;14.20;62.10;;;;;;5013766;28;20214;-73
2022/04/15 00:46:25;;;;;;;29.80;18.63;;;14.10;62.20;;;;;;5014462;28;20219;-73
2022/04/15 00:48:51;;;;;;;27.27;18.60;;;14.10;62.40;;;;;;5012166;28;20218;-73
2022/04/15 00:51:18;;;;;;;31.47;18.00;;;14.00;62.50;;;;;;5014034;28;20286;-72
2022/04/15 00:53:48;;;;;;;30.03;18.97;;;14.00;62.80;;;;;;5014645;28;20849;-73
2022/04/15 00:56:15;;;;;;;27.17;17.47;;;14.00;63.20;;;;;;5014295;28;20736;-73
2022/04/15 00:58:42;;;;;;;28.13;18.67;;;14.00;63.40;;;;;;5013103;28;20679;-73
2022/04/15 01:01:10;;;;;;;30.00;17.73;;;14.00;63.70;;;;;;5014690;28;20207;-70
2022/04/15 01:03:37;;;;;;;31.17;17.87;;;13.90;64.10;;;;;;5013074;28;20605;-70
2022/04/15 01:06:06;;;;;;;28.70;17.20;;;13.80;64.60;;;;;;5015357;28;20666;-70
2022/04/15 01:08:38;;;;;;;27.93;17.67;;;13.80;65.00;;;;;;5014867;28;20211;-71
2022/04/15 01:11:08;;;;;;;33.17;19.17;;;13.70;65.30;;;;;;5015230;28;20763;-71
2022/04/15 01:13:38;;;;;;;26.03;17.20;;;13.70;65.80;;;;;;5012740;28;20222;-70
2022/04/15 01:16:07;;;;;;;27.30;17.80;;;13.70;66.30;;;;;;5015581;28;20620;-70
2022/04/15 01:18:34;;;;;;;25.50;17.07;;;13.60;66.70;;;;;;5014914;28;20211;-70
2022/04/15 01:21:01;;;;;;;28.30;16.70;;;13.60;67.10;;;;;;5015426;28;20778;-70
2022/04/15 01:23:30;;;;;;;26.47;17.73;;;13.60;67.70;;;;;;5013249;28;20223;-71
2022/04/15 01:25:56;;;;;;;26.90;16.93;;;13.50;68.00;;;;;;5014999;28;20207;-71
2022/04/15 01:28:23;;;;;;;22.10;16.10;;;13.40;68.50;;;;;;5012905;28;20212;-71
2022/04/15 01:30:51;;;;;;;23.40;16.50;;;13.40;69.00;;;;;;5013617;28;20644;-70
2022/04/15 01:33:18;;;;;;;23.23;16.87;;;13.50;69.50;;;;;;5014305;28;20286;-71
2022/04/15 01:35:45;;;;;;;25.03;16.33;;;13.40;69.80;;;;;;5013735;28;20208;-71
2022/04/15 01:38:14;;;;;;;26.17;17.00;;;13.40;70.40;;;;;;5014101;28;20215;-71
2022/04/15 01:40:44;;;;;;;26.73;15.70;;;13.40;70.80;;;;;;5013455;28;20250;-70
2022/04/15 01:43:12;;;;;;;25.43;16.80;;;13.40;71.40;;;;;;5011707;28;20234;-71
2022/04/15 01:45:39;;;;;;;26.37;16.70;;;13.40;72.40;;;;;;5014390;28;20626;-70
2022/04/15 01:48:06;;;;;;;24.13;15.70;;;13.40;73.30;;;;;;5012002;28;20203;-70
2022/04/15 01:50:33;;;;;;;21.03;15.37;;;13.30;74.50;;;;;;5014139;28;20299;-71
2022/04/15 01:53:00;;;;;;;24.83;16.37;;;13.30;75.60;;;;;;5013380;28;20204;-70
2022/04/15 01:55:27;;;;;;;20.67;15.90;;;13.30;76.70;;;;;;5014245;28;20539;-71
2022/04/15 01:57:56;;;;;;;23.10;15.50;;;13.30;77.80;;;;;;5011802;28;20235;-69
2022/04/15 02:00:23;;;;;;;22.00;16.37;;;13.30;79.10;;;;;;5014634;28;20679;-71
2022/04/15 02:02:50;;;;;;;22.10;15.67;;;13.30;80.60;;;;;;5014256;28;20227;-70
2022/04/15 02:05:17;;;;;;;22.60;15.37;;;13.30;81.70;;;;;;5014435;28;20212;-71
2022/04/15 02:07:44;;;;;;;21.90;16.07;;;13.20;83.20;;;;;;5013156;28;20646;-71
2022/04/15 02:10:11;;;;;;;21.03;16.10;;;13.20;84.80;;;;;;5013628;28;20698;-70
2022/04/15 02:12:38;;;;;;;19.60;15.20;;;13.20;86.50;;;;;;5012599;28;20214;-71
2022/04/15 02:15:08;;;;;;;22.03;16.43;;;13.20;88.50;;;;;;5012835;28;20306;-70
2022/04/15 02:17:35;;;;;;;22.73;16.27;;;13.20;90.40;;;;;;5016980;28;20249;-71
2022/04/15 02:20:02;;;;;;;21.73;15.63;;;13.10;91.50;;;;;;5018257;28;20207;-71
2022/04/15 02:22:29;;;;;;;21.60;16.00;;;13.10;92.70;;;;;;5017158;28;20234;-69
2022/04/15 02:24:56;;;;;;;23.27;16.30;;;13.00;93.90;;;;;;5016050;28;20645;-70
2022/04/15 02:27:23;;;;;;;21.43;15.30;;;13.10;95.20;;;;;;5010456;28;20703;-71
2022/04/15 02:29:49;;;;;;;20.40;16.77;;;13.10;96.30;;;;;;5016943;28;20218;-71
2022/04/15 02:32:18;;;;;;;20.97;15.40;;;13.10;97.20;;;;;;5017846;28;20235;-72
2022/04/15 02:34:44;;;;;;;21.07;15.93;;;13.10;97.90;;;;;;5017706;28;20249;-71
2022/04/15 02:37:11;;;;;;;21.93;15.97;;;13.10;98.60;;;;;;5015851;28;20281;-70
2022/04/15 02:39:38;;;;;;;22.37;16.37;;;13.20;99.30;;;;;;5016071;28;20243;-70
2022/04/15 02:42:05;;;;;;;19.93;15.67;;;13.10;99.60;;;;;;5015649;28;20233;-70
2022/04/15 02:44:32;;;;;;;20.87;15.47;;;13.20;99.90;;;;;;5016304;28;20207;-70
2022/04/15 02:46:59;;;;;;;19.20;16.37;;;13.20;99.90;;;;;;5016578;28;20653;-70
2022/04/15 02:49:28;;;;;;;23.80;16.00;;;13.20;99.90;;;;;;5016455;28;20207;-70
2022/04/15 02:51:56;;;;;;;23.47;16.03;;;13.60;99.90;;;;;;5017318;28;20239;-71
2022/04/15 02:54:23;;;;;;;19.83;16.40;;;13.20;99.90;;;;;;5009082;28;20267;-71
2022/04/15 02:56:50;;;;;;;20.87;15.83;;;13.20;99.90;;;;;;5015392;28;20311;-69
2022/04/15 02:59:17;;;;;;;23.27;17.00;;;13.20;99.90;;;;;;5016734;28;20306;-70
2022/04/15 03:01:46;;;;;;;20.43;16.30;;;13.30;99.90;;;;;;5016146;28;20214;-70
2022/04/15 03:04:13;;;;;;;21.53;16.80;;;13.30;99.90;;;;;;5016472;28;20234;-71
2022/04/15 03:06:41;;;;;;;19.80;16.23;;;13.30;99.90;;;;;;5016435;28;20306;-70
2022/04/15 03:09:08;;;;;;;21.60;16.50;;;13.30;99.90;;;;;;5014559;28;20242;-71
2022/04/15 03:11:38;;;;;;;20.57;16.00;;;13.30;99.90;;;;;;5016789;28;20215;-70
2022/04/15 03:14:05;;;;;;;23.93;16.27;;;13.30;99.90;;;;;;5015271;28;20239;-70
2022/04/15 03:16:33;;;;;;;22.23;15.60;;;13.20;99.90;;;;;;5015359;28;20611;-70
2022/04/15 03:19:00;;;;;;;20.57;15.53;;;13.20;99.90;;;;;;5016537;28;20270;-70
2022/04/15 03:21:27;;;;;;;20.23;15.60;;;13.20;99.90;;;;;;5016964;28;20231;-70
2022/04/15 03:23:55;;;;;;;18.03;14.83;;;13.20;99.90;;;;;;5017209;28;20227;-70
2022/04/15 03:26:22;;;;;;;19.60;16.20;;;13.30;99.90;;;;;;5014457;28;20199;-70
2022/04/15 03:28:50;;;;;;;22.90;16.53;;;13.30;99.90;;;;;;5015113;28;20211;-70
2022/04/15 03:31:17;;;;;;;23.07;16.00;;;13.30;99.90;;;;;;5015491;28;20334;-71
2022/04/15 03:33:44;;;;;;;20.40;16.13;;;13.30;99.90;;;;;;5016094;28;20277;-70
2022/04/15 03:36:11;;;;;;;21.17;15.90;;;13.20;99.90;;;;;;5015459;28;20262;-69
2022/04/15 03:38:38;;;;;;;19.63;15.63;;;13.20;99.90;;;;;;5016120;28;20298;-70
2022/04/15 03:41:06;;;;;;;18.97;14.93;;;13.20;99.90;;;;;;5015569;28;20285;-70
2022/04/15 03:43:33;;;;;;;19.40;14.70;;;13.20;99.90;;;;;;5016421;28;20231;-70
2022/04/15 03:46:00;;;;;;;20.13;15.43;;;13.20;99.90;;;;;;5014205;28;20215;-71
2022/04/15 03:48:27;;;;;;;20.97;15.10;;;13.20;99.90;;;;;;5016774;28;20207;-69
2022/04/15 03:50:54;;;;;;;20.67;15.27;;;13.20;99.90;;;;;;5010784;28;20996;-69
2022/04/15 03:53:21;;;;;;;17.53;14.27;;;13.20;99.90;;;;;;5016795;28;20199;-70
2022/04/15 03:55:47;;;;;;;19.63;14.20;;;13.20;99.90;;;;;;5016627;28;20246;-70
2022/04/15 03:58:16;;;;;;;17.30;13.13;;;13.10;99.90;;;;;;5015960;28;20239;-70
2022/04/15 04:00:43;;;;;;;17.10;12.93;;;13.20;99.90;;;;;;5015664;28;20211;-71
2022/04/15 04:03:10;;;;;;;19.53;14.30;;;13.20;99.90;;;;;;5016029;28;20326;-70
2022/04/15 04:05:37;;;;;;;18.27;13.23;;;13.10;99.90;;;;;;5014705;28;20207;-70
2022/04/15 04:08:05;;;;;;;19.93;14.23;;;13.10;99.90;;;;;;5006760;28;20211;-70
2022/04/15 04:10:33;;;;;;;16.17;12.57;;;13.10;99.90;;;;;;5016319;28;20669;-72
2022/04/15 04:13:00;;;;;;;16.07;12.60;;;13.10;99.90;;;;;;5001814;28;20203;-70
2022/04/15 04:15:29;;;;;;;16.83;12.40;;;13.00;99.90;;;;;;5014335;28;20211;-70
2022/04/15 04:17:56;;;;;;;18.07;12.77;;;13.00;99.90;;;;;;5015132;28;20630;-70
2022/04/15 04:20:23;;;;;;;21.07;12.60;;;13.00;99.90;;;;;;5015549;28;20238;-69
2022/04/15 04:22:50;;;;;;;17.00;13.20;;;13.00;99.90;;;;;;5013157;28;20314;-69
2022/04/15 04:25:17;;;;;;;21.03;12.77;;;13.00;99.90;;;;;;5010003;28;20240;-69
2022/04/15 04:27:44;;;;;;;16.80;12.97;;;13.10;99.90;;;;;;5008651;28;20851;-70
2022/04/15 04:30:13;;;;;;;17.07;12.47;;;13.10;99.90;;;;;;5014179;28;20211;-70
2022/04/15 04:32:41;;;;;;;17.23;12.47;;;13.10;99.90;;;;;;5014962;28;20672;-70
2022/04/15 04:35:09;;;;;;;19.73;12.67;;;13.10;99.90;;;;;;5014626;28;20306;-70
2022/04/15 04:37:36;;;;;;;16.40;13.13;;;13.20;99.90;;;;;;5013911;28;20687;-69
2022/04/15 04:40:03;;;;;;;14.27;11.60;;;13.20;99.90;;;;;;5012964;28;20312;-71
2022/04/15 04:42:30;;;;;;;15.77;12.00;;;13.20;99.90;;;;;;5014795;28;20208;-69
2022/04/15 04:44:58;;;;;;;19.97;12.77;;;13.20;99.90;;;;;;5014683;28;20218;-70
2022/04/15 04:47:25;;;;;;;16.13;12.00;;;13.30;99.90;;;;;;5014355;28;20203;-69
2022/04/15 04:49:55;;;;;;;14.90;10.33;;;13.20;99.90;;;;;;5014485;28;20221;-70
2022/04/15 04:52:23;;;;;;;16.77;11.47;;;13.30;99.90;;;;;;5014602;28;20208;-71
2022/04/15 04:54:51;;;;;;;17.53;10.70;;;13.30;99.90;;;;;;5012830;28;20592;-72
2022/04/15 04:57:18;;;;;;;15.43;11.10;;;13.30;99.90;;;;;;5013709;28;20728;-69
2022/04/15 04:59:44;;;;;;;12.57;10.37;;;13.30;99.90;;;;;;5014418;28;20213;-70
2022/04/15 05:02:12;;;;;;;13.70;10.40;;;13.30;99.90;;;;;;5010770;28;20211;-70
2022/04/15 05:04:39;;;;;;;14.73;11.03;;;13.30;99.90;;;;;;5014535;28;20234;-71
2022/04/15 05:07:07;;;;;;;15.40;10.63;;;13.30;99.90;;;;;;5013835;28;20243;-70
2022/04/15 05:09:34;;;;;;;16.07;10.50;;;13.40;99.90;;;;;;5011070;28;20207;-70
2022/04/15 05:12:01;;;;;;;14.70;11.10;;;13.40;99.90;;;;;;5013494;28;20222;-71
2022/04/15 05:14:28;;;;;;;18.00;11.17;;;13.30;99.90;;;;;;5014515;28;20287;-70
2022/04/15 05:16:55;;;;;;;17.37;10.73;;;13.30;99.90;;;;;;5004183;28;20315;-70
2022/04/15 05:19:22;;;;;;;19.03;10.60;;;13.30;99.90;;;;;;5006486;28;20298;-70
2022/04/15 05:21:49;;;;;;;16.60;11.17;;;13.30;99.90;;;;;;5009003;28;20581;-70
2022/04/15 05:24:17;;;;;;;14.27;10.83;;;13.20;99.90;;;;;;5013017;28;20261;-71
2022/04/15 05:26:44;;;;;;;20.97;11.43;;;13.20;99.90;;;;;;4996126;28;20211;-70
2022/04/15 05:29:11;;;;;;;18.30;11.83;;;13.20;99.90;;;;;;5007403;28;20238;-71
2022/04/15 05:31:37;;;;;;;18.17;11.03;;;13.20;99.90;;;;;;5010663;28;20294;-71
2022/04/15 05:34:04;;;;;;;15.90;10.73;;;13.20;99.90;;;;;;5010354;28;20650;-70
2022/04/15 05:36:32;;;;;;;18.20;11.83;;;13.20;99.90;;;;;;5013896;28;20238;-71
2022/04/15 05:38:59;;;;;;;17.07;11.20;;;13.20;99.90;;;;;;5008315;28;20211;-70
2022/04/15 05:41:27;;;;;;;16.20;11.03;;;13.30;99.90;;;;;;5013972;28;20280;-71
2022/04/15 05:43:54;;;;;;;18.40;11.60;;;13.20;99.90;;;;;;5014415;28;20231;-71
2022/04/15 05:46:21;;;;;;;15.83;10.83;;;13.20;99.90;;;;;;5012483;28;20214;-71
2022/04/15 05:48:48;;;;;;;21.63;11.67;;;13.20;99.90;;;;;;5012647;28;20293;-71
2022/04/15 05:51:15;;;;;;;17.80;11.90;;;13.10;99.90;;;;;;5012540;28;20235;-69
2022/04/15 05:53:42;;;;;;;16.23;12.07;;;13.10;99.90;;;;;;5009485;28;20296;-70
2022/04/15 05:56:09;;;;;;;19.47;13.03;;;13.10;99.90;;;;;;5011893;28;20711;-69
2022/04/15 05:58:37;;;;;;;17.53;11.67;;;13.10;99.90;;;;;;5007955;28;20267;-69
2022/04/15 06:01:06;;;;;;;18.60;12.33;;;13.00;99.90;;;;;;5005957;28;20212;-71
2022/04/15 06:03:34;;;;;;;19.70;11.80;;;13.00;99.90;;;;;;5004709;28;20237;-71
2022/04/15 06:06:01;;;;;;;19.57;11.90;;;12.90;99.90;;;;;;5005830;28;20265;-70
2022/04/15 06:08:28;;;;;;;16.93;11.93;;;12.90;99.90;;;;;;5011731;28;20639;-70
2022/04/15 06:10:55;;;;;;;14.23;10.90;;;12.80;99.90;;;;;;5010449;28;20207;-71
2022/04/15 06:13:25;;;;;;;16.83;12.47;;;12.70;99.90;;;;;;5002005;28;20791;-70
2022/04/15 06:15:56;;;;;;;16.57;12.00;;;12.70;99.90;;;;;;5008179;28;20635;-71
2022/04/15 06:18:23;;;;;;;15.33;11.63;;;12.70;99.90;;;;;;5006580;28;20200;-71
2022/04/15 06:20:50;;;;;;;15.07;11.57;;;12.60;99.90;;;;;;5005950;28;20234;-71
2022/04/15 06:23:20;;;;;;;16.90;11.87;;;12.70;99.90;;;;;;5009394;28;20703;-71
2022/04/15 06:25:47;;;;;;;17.20;11.43;;;12.60;99.90;;;;;;5014162;28;20215;-70
2022/04/15 06:28:14;;;;;;;16.73;11.90;;;12.60;99.90;;;;;;5012816;28;20207;-70
2022/04/15 06:30:41;;;;;;;16.47;11.47;;;12.50;99.90;;;;;;5013008;28;20249;-69
2022/04/15 06:33:10;;;;;;;12.97;11.27;;;12.60;99.90;;;;;;5013502;28;20221;-69
2022/04/15 06:35:39;;;;;;;19.17;12.27;;;12.60;99.90;;;;;;5007226;28;20299;-70
2022/04/15 06:38:06;;;;;;;17.50;11.37;;;12.50;99.90;;;;;;5009782;28;20219;-65
2022/04/15 06:40:33;;;;;;;21.60;12.83;;;12.50;99.90;;;;;;5009416;28;20238;-65
2022/04/15 06:43:00;;;;;;;15.37;11.83;;;12.40;99.90;;;;;;5010386;28;20217;-70
2022/04/15 06:45:27;;;;;;;15.73;11.97;;;12.50;99.90;;;;;;5010261;28;20225;-67
2022/04/15 06:47:54;;;;;;;21.17;12.07;;;12.60;99.90;;;;;;5011946;28;20704;-65
2022/04/15 06:50:23;;;;;;;18.27;11.70;;;12.60;99.90;;;;;;5009442;28;20209;-64
2022/04/15 06:52:49;;;;;;;15.50;11.20;;;12.60;99.90;;;;;;5007373;28;20275;-66
2022/04/15 06:55:17;;;;;;;14.50;9.87;;;12.60;99.90;;;;;;5008643;28;20293;-65
2022/04/15 06:57:44;;;;;;;15.33;10.80;;;12.60;99.90;;;;;;5010841;28;20261;-64
2022/04/15 07:00:13;;;;;;;13.90;10.93;;;12.60;99.90;;;;;;5010644;28;20298;-63
2022/04/15 07:02:41;;;;;;;15.33;11.20;;;12.60;99.90;;;;;;5013340;28;20239;-64
2022/04/15 07:05:09;;;;;;;14.63;10.40;;;12.60;99.90;;;;;;5011087;28;20254;-64
2022/04/15 07:07:38;;;;;;;12.77;10.33;;;12.60;99.90;;;;;;5013117;28;20211;-65
2022/04/15 07:10:07;;;;;;;14.47;10.73;;;12.60;99.90;;;;;;5012278;28;20913;-64
2022/04/15 07:12:34;;;;;;;13.60;10.90;;;12.60;99.90;;;;;;5010099;28;20250;-66
2022/04/15 07:15:01;;;;;;;15.90;11.33;;;12.60;99.90;;;;;;5014357;28;20275;-67
2022/04/15 07:17:28;;;;;;;14.10;10.13;;;12.60;99.90;;;;;;5014667;28;20446;-67
2022/04/15 07:19:55;;;;;;;14.93;11.27;;;12.50;99.90;;;;;;5012020;28;20204;-66
2022/04/15 07:22:22;;;;;;;21.77;14.03;;;12.50;99.90;;;;;;5012549;28;20230;-65
2022/04/15 07:24:51;;;;;;;16.40;12.77;;;12.50;99.90;;;;;;5012660;28;20290;-65
2022/04/15 07:27:18;;;;;;;13.97;11.20;;;12.50;99.90;;;;;;5011372;28;20226;-64
2022/04/15 07:29:45;;;;;;;15.70;12.33;;;12.40;99.90;;;;;;5009366;28;20211;-65
2022/04/15 07:32:13;;;;;;;16.27;12.20;;;12.40;99.90;;;;;;5009577;28;20580;-65
2022/04/15 07:34:40;;;;;;;16.43;12.43;;;12.40;99.90;;;;;;5010760;28;20668;-65
2022/04/15 07:37:07;;;;;;;14.60;12.40;;;12.40;99.90;;;;;;5003750;28;20235;-65
2022/04/15 07:39:34;;;;;;;16.83;12.53;;;12.40;99.90;;;;;;5014525;28;20231;-64
2022/04/15 07:42:02;;;;;;;13.97;11.73;;;12.40;99.90;;;;;;5012314;28;20619;-64
2022/04/15 07:44:30;;;;;;;16.10;13.70;;;12.50;99.90;;;;;;5012633;28;20700;-64
2022/04/15 07:46:57;;;;;;;15.47;13.13;;;12.50;99.90;;;;;;5010778;28;20219;-64
2022/04/15 07:49:24;;;;;;;17.97;13.00;;;12.60;99.90;;;;;;5010909;28;20427;-63
2022/04/15 07:51:50;;;;;;;15.87;12.67;;;12.70;99.90;;;;;;5013005;28;20215;-64
2022/04/15 07:54:17;;;;;;;16.30;12.90;;;12.90;99.90;;;;;;5013315;28;20207;-66
2022/04/15 07:56:44;;;;;;;12.80;11.07;;;13.10;99.90;;;;;;5013935;28;20294;-67
2022/04/15 07:59:13;;;;;;;13.40;11.73;;;13.30;99.90;;;;;;5010078;28;20225;-67
2022/04/15 08:01:40;;;;;;;13.43;11.07;;;13.40;99.90;;;;;;5009607;28;20682;-66
2022/04/15 08:04:07;;;;;;;13.23;11.70;;;13.60;99.90;;;;;;5012955;28;20223;-66
2022/04/15 08:06:34;;;;;;;14.27;11.93;;;13.90;99.90;;;;;;5011730;28;20207;-66
2022/04/15 08:09:01;;;;;;;13.00;11.13;;;14.10;99.90;;;;;;5009651;28;20242;-66
2022/04/15 08:11:28;;;;;;;13.53;10.53;;;14.30;99.90;;;;;;5002667;28;20226;-66
2022/04/15 08:13:56;;;;;;;11.87;9.90;;;14.40;99.90;;;;;;5010967;28;20207;-65
2022/04/15 08:19:43;;;;;;;13.50;10.17;;;14.40;99.90;;;;;;5000820;28;20756;-68
2022/04/15 08:22:10;;;;;;;12.70;10.70;;;14.40;99.90;;;;;;5012756;28;20235;-69
2022/04/15 08:24:42;;;;;;;12.50;10.73;;;14.30;99.90;;;;;;5013576;28;20219;-64
2022/04/15 08:27:09;;;;;;;12.63;10.23;;;14.20;99.90;;;;;;5009760;28;20199;-67
2022/04/15 08:29:38;;;;;;;13.60;10.80;;;14.20;99.90;;;;;;5012802;28;20243;-64
2022/04/15 08:32:07;;;;;;;13.40;10.63;;;14.10;99.90;;;;;;5011045;28;20261;-67
2022/04/15 08:34:34;;;;;;;12.07;10.67;;;14.20;99.90;;;;;;5013456;28;20247;-66
2022/04/15 08:37:03;;;;;;;12.33;11.03;;;14.20;99.90;;;;;;5003593;28;20203;-66
2022/04/15 08:39:30;;;;;;;14.60;11.07;;;14.20;99.90;;;;;;5012844;28;20247;-66
2022/04/15 08:41:59;;;;;;;13.90;11.77;;;14.20;99.90;;;;;;5004785;28;20291;-67
2022/04/15 08:44:26;;;;;;;12.77;10.87;;;14.40;99.90;;;;;;5008468;28;20227;-65
2022/04/15 08:46:53;;;;;;;13.10;10.90;;;14.40;99.90;;;;;;5012857;28;20235;-65
2022/04/15 08:49:24;;;;;;;15.17;12.27;;;14.50;99.90;;;;;;5013076;28;20235;-67
2022/04/15 08:51:51;;;;;;;17.10;12.37;;;14.50;99.90;;;;;;5011846;28;20216;-65
2022/04/15 08:54:20;;;;;;;16.53;13.07;;;14.50;99.90;;;;;;5011712;28;20196;-66
2022/04/15 08:56:47;;;;;;;18.50;14.10;;;14.50;99.90;;;;;;5010121;28;20212;-65
2022/04/15 08:59:14;;;;;;;17.87;14.10;;;14.50;99.90;;;;;;5014732;28;20206;-66
2022/04/15 09:01:41;;;;;;;20.10;15.03;;;14.60;99.90;;;;;;5011663;28;20588;-66
2022/04/15 09:04:09;;;;;;;17.50;14.17;;;14.70;99.90;;;;;;5008220;28;20284;-66
2022/04/15 09:06:36;;;;;;;20.53;15.20;;;14.70;99.90;;;;;;5005588;28;20298;-66
2022/04/15 09:09:06;;;;;;;20.47;14.83;;;14.80;99.90;;;;;;5010938;28;20299;-66
2022/04/15 09:11:36;;;;;;;19.87;15.43;;;14.80;99.90;;;;;;5013730;28;20215;-65
2022/04/15 09:14:07;;;;;;;20.77;14.90;;;14.70;99.90;;;;;;5016433;28;20192;-66
2022/04/15 09:16:38;;;;;;;20.67;15.17;;;14.70;99.90;;;;;;5016038;28;20314;-66
2022/04/15 09:19:08;;;;;;;20.33;15.40;;;14.80;99.90;;;;;;5013683;28;20208;-67
2022/04/15 09:21:35;;;;;;;19.87;15.13;;;14.80;99.90;;;;;;5014360;28;20266;-65
2022/04/15 09:24:02;;;;;;;22.20;14.83;;;14.90;99.90;;;;;;5008295;28;20756;-68
2022/04/15 09:26:29;;;;;;;17.53;13.67;;;14.90;99.90;;;;;;5012253;28;20211;-66
2022/04/15 09:28:58;;;;;;;21.37;15.20;;;15.00;99.90;;;;;;5007574;28;20300;-66
2022/04/15 09:31:26;;;;;;;16.17;12.70;;;15.00;99.90;;;;;;4996647;28;20211;-66
2022/04/15 09:33:54;;;;;;;15.87;12.27;;;15.00;99.90;;;;;;4997174;28;20610;-66
2022/04/15 09:36:30;;;;;;;17.03;12.90;;;15.00;99.90;;;;;;5003639;28;20239;-68
2022/04/15 09:38:59;;;;;;;16.17;12.53;;;15.00;99.90;;;;;;5016029;28;20229;-67
2022/04/15 09:41:26;;;;;;;17.53;13.07;;;15.00;99.90;;;;;;5016050;28;20230;-66
2022/04/15 09:43:55;;;;;;;14.87;10.37;;;14.90;99.90;;;;;;5015942;28;20261;-66
2022/04/15 09:46:23;;;;;;;16.03;10.97;;;14.90;99.90;;;;;;5016484;28;20203;-66
2022/04/15 09:49:02;;;;;;;11.60;9.17;;;14.80;99.90;;;;;;5016531;28;20689;-66
2022/04/15 09:51:34;;;;;;;10.67;7.97;;;14.80;99.90;;;;;;5017844;28;20207;-66
2022/04/15 09:54:04;;;;;;;13.77;8.43;;;14.70;99.90;;;;;;5017146;28;20188;-66
2022/04/15 09:56:34;;;;;;;11.43;7.43;;;14.70;99.90;;;;;;5016484;28;20259;-66
2022/04/15 09:59:05;;;;;;;8.90;7.10;;;14.80;99.90;;;;;;5017366;28;20209;-65
2022/04/15 10:01:35;;;;;;;9.53;7.90;;;14.70;99.90;;;;;;5016756;28;20207;-67
2022/04/15 10:04:03;;;;;;;11.20;8.27;;;14.70;99.90;;;;;;5016391;28;20285;-67
2022/04/15 10:06:31;;;;;;;11.57;8.40;;;14.60;99.90;;;;;;5015052;28;20207;-66
2022/04/15 10:09:02;;;;;;;10.93;8.57;;;14.60;99.90;;;;;;5016403;28;20199;-65
2022/04/15 10:11:35;;;;;;;11.00;8.60;;;14.50;99.90;;;;;;5015916;28;20653;-65
2022/04/15 10:14:02;;;;;;;11.70;9.30;;;14.40;99.90;;;;;;5015641;28;20187;-66
2022/04/15 10:16:32;;;;;;;13.00;9.67;;;14.30;99.90;;;;;;5014755;28;20210;-66
2022/04/15 10:19:02;;;;;;;14.37;10.47;;;14.20;99.90;;;;;;5016521;28;20218;-66
2022/04/15 10:21:32;;;;;;;13.97;10.50;;;14.10;99.90;;;;;;5015984;28;20277;-65
2022/04/15 10:24:01;;;;;;;16.10;11.77;;;14.00;99.90;;;;;;5016521;28;20191;-65
2022/04/15 10:26:28;;;;;;;15.20;11.17;;;14.00;99.90;;;;;;5015742;28;20215;-66
2022/04/15 10:28:55;;;;;;;15.07;11.60;;;14.00;99.90;;;;;;5016198;28;20270;-66
2022/04/15 10:31:26;;;;;;;16.57;12.33;;;14.00;99.90;;;;;;5015719;28;20212;-67
2022/04/15 10:34:08;;;;;;;18.47;12.37;;;13.90;99.90;;;;;;5015785;28;20199;-66
2022/04/15 10:36:37;;;;;;;16.37;12.13;;;14.00;99.90;;;;;;5016609;28;20227;-67
2022/04/15 10:39:25;;;;;;;18.90;13.13;;;13.90;99.90;;;;;;5019496;28;20203;-67
2022/04/15 10:41:57;;;;;;;16.40;12.17;;;14.00;99.90;;;;;;5016499;28;20298;-66
2022/04/15 10:44:29;;;;;;;18.43;13.33;;;13.90;99.90;;;;;;5020099;28;20619;-66
2022/04/15 10:47:04;;;;;;;18.10;13.80;;;14.00;99.90;;;;;;5020060;28;20270;-66
2022/04/15 10:49:31;;;;;;;17.77;13.63;;;14.00;99.90;;;;;;5020000;28;20192;-65
2022/04/15 10:52:03;;;;;;;19.90;13.40;;;14.00;99.90;;;;;;5019209;28;20203;-67
2022/04/15 10:54:32;;;;;;;17.03;13.10;;;14.00;99.90;;;;;;5019559;28;20279;-66
2022/04/15 10:57:00;;;;;;;18.17;13.40;;;14.10;99.90;;;;;;5019407;28;20242;-66
2022/04/15 11:02:17;;;;;;;17.53;13.00;;;14.30;99.90;;;;;;5019067;28;20178;-67
2022/04/15 11:04:49;;;;;;;23.47;14.17;;;14.50;99.90;;;;;;5019393;28;20258;-66
2022/04/15 11:07:26;;;;;;;18.13;14.07;;;14.70;99.90;;;;;;5019519;28;20641;-67
2022/04/15 11:09:53;;;;;;;18.33;13.73;;;15.20;99.90;;;;;;5019567;28;20229;-66
2022/04/15 11:12:30;;;;;;;18.73;14.00;;;15.60;99.90;;;;;;5019237;28;20207;-66
2022/04/15 11:14:57;;;;;;;18.63;14.20;;;16.00;99.90;;;;;;5018955;28;20196;-66
2022/04/15 11:17:38;;;;;;;18.43;13.67;;;16.20;99.90;;;;;;5018971;28;20223;-66
2022/04/15 11:20:06;;;;;;;17.43;13.47;;;16.30;99.90;;;;;;5018718;28;20205;-66
2022/04/15 11:22:38;;;;;;;22.20;14.03;;;16.40;99.90;;;;;;5018906;28;20282;-66
2022/04/15 11:25:07;;;;;;;18.70;13.67;;;16.50;99.90;;;;;;5018878;28;20235;-66
2022/04/15 11:27:35;;;;;;;17.53;13.77;;;16.60;99.90;;;;;;5017754;28;20211;-66
2022/04/15 11:30:05;;;;;;;21.50;13.70;;;16.70;99.90;;;;;;5018853;28;20227;-65
2022/04/15 11:32:32;;;;;;;18.73;13.50;;;16.80;99.90;;;;;;5018672;28;20680;-66
2022/04/15 11:35:04;;;;;;;17.85;13.57;;;16.80;99.90;;;;;;5018613;28;20204;-67
2022/04/15 11:37:31;;;;;;;15.65;12.40;;;16.90;99.90;;;;;;5018770;28;20198;-65
2022/04/15 11:40:00;;;;;;;15.60;12.80;;;16.90;99.90;;;;;;5018225;28;20327;-66
2022/04/15 11:42:28;;;;;;;17.83;13.43;;;16.90;99.90;;;;;;5018862;28;20290;-67
2022/04/15 11:44:55;;;;;;;15.27;12.43;;;16.90;99.90;;;;;;5017754;28;20221;-66
2022/04/15 11:47:24;;;;;;;17.05;13.45;;;16.90;99.90;;;;;;5018351;28;20680;-66
2022/04/15 11:49:51;;;;;;;15.25;12.77;;;16.90;99.90;;;;;;5017435;28;20535;-65
2022/04/15 11:52:23;;;;;;;17.42;13.65;;;16.90;99.90;;;;;;5018058;28;20210;-66
2022/04/15 11:54:50;;;;;;;16.10;12.32;;;16.90;99.90;;;;;;5018252;28;20543;-66
2022/04/15 11:57:18;;;;;;;15.53;12.70;;;16.90;99.90;;;;;;5017782;28;20287;-66
2022/04/15 11:59:47;;;;;;;15.05;12.15;;;16.70;99.90;;;;;;5018338;28;20728;-66
2022/04/15 12:02:18;;;;;;;17.85;13.07;;;16.60;99.90;;;;;;5018372;28;20677;-66
2022/04/15 12:04:55;;;;;;;15.47;12.27;;;16.40;99.90;;;;;;5017987;28;20207;-66
2022/04/15 12:07:23;;;;;;;15.05;12.15;;;16.30;99.90;;;;;;5018133;28;20171;-66
2022/04/15 12:09:51;;;;;;;15.23;11.90;;;16.30;99.90;;;;;;5018866;28;20211;-67
2022/04/15 12:12:21;;;;;;;17.35;12.35;;;16.50;99.90;;;;;;5017605;28;20225;-66
2022/04/15 12:14:50;;;;;;;14.95;11.57;;;16.70;99.90;;;;;;5017282;28;20613;-67
2022/04/15 12:17:18;;;;;;;13.40;10.27;;;16.90;99.90;;;;;;5018097;28;20298;-67
2022/04/15 12:19:45;;;;;;;14.85;11.32;;;17.20;99.90;;;;;;5017958;28;20206;-67
2022/04/15 12:22:12;;;;;;;11.75;10.23;;;17.70;99.90;;;;;;5018613;28;20258;-66
2022/04/15 12:24:39;;;;;;;11.20;9.23;;;18.40;99.90;;;;;;5017881;28;20225;-66
2022/04/15 12:27:06;;;;;;;9.88;8.63;;;19.00;99.90;;;;;;5017848;28;20211;-66
2022/04/15 12:29:51;;;;;;;10.65;9.07;;;19.50;99.90;;;;;;5018033;28;20600;-66
2022/04/15 12:32:23;;;;;;;10.05;8.80;;;19.80;99.30;;;;;;5018253;28;20222;-66
2022/04/15 12:34:51;;;;;;;10.02;8.93;;;20.20;96.40;;;;;;5018317;28;20706;-66
2022/04/15 12:37:38;;;;;;;11.07;9.88;;;20.30;95.00;;;;;;5023262;28;20226;-67
2022/04/15 12:40:07;;;;;;;11.27;9.48;;;20.30;93.90;;;;;;5018496;28;20330;-67